Time;durP1;ratioP1;P1;durP2;ratioP2;P2;SDS_P1;SDS_P2;PMS_P1;PMS_P2;Temp;Humidity;BMP_temperature;BMP_pressure;BME280_temperature;BME280_humidity;BME280_pressure;Samples;Min_cycle;Max_cycle;Signal;HPM_P1;HPM_P2
2021/10/17 00:02:19;;;;;;;;;;;;;;;9.15;83.41;102016.75;4898400;29;19928;-56
2021/10/17 00:04:46;;;;;;;;;;;;;;;9.16;84.52;102007.94;4898247;29;19927;-57
2021/10/17 00:07:14;;;;;;;;;;;;;;;9.17;84.49;102008.81;4895650;29;19931;-56
2021/10/17 00:09:41;;;;;;;;;;;;;;;9.09;83.34;102002.09;4894717;29;19931;-57
2021/10/17 00:12:08;;;;;;;;;;;;;;;9.09;83.81;101999.47;4881213;29;19927;-56
2021/10/17 00:14:35;;;;;;;;;;;;;;;9.02;83.12;101994.53;4897865;29;19979;-57
2021/10/17 00:17:02;;;;;;;;;;;;;;;8.96;83.54;101996.47;4881364;29;19991;-57
2021/10/17 00:19:28;;;;;;;;;;;;;;;9.00;84.08;102002.47;4881588;29;19931;-53
2021/10/17 00:21:55;;;;;;;;;;;;;;;8.98;84.05;102003.44;4881012;29;19983;-46
2021/10/17 00:24:22;;;;;;;;;;;;;;;9.00;83.50;102004.22;4897603;29;20423;-46
2021/10/17 00:26:48;;;;;;;;;;;;;;;9.08;84.39;102007.38;4897574;29;19935;-45
2021/10/17 00:29:15;;;;;;;;;;;;;;;9.11;84.16;102002.88;4879596;29;20525;-47
2021/10/17 00:31:42;;;;;;;;;;;;;;;9.11;82.44;102002.03;4894140;29;19931;-48
2021/10/17 00:34:08;;;;;;;;;;;;;;;9.15;82.48;102001.00;4897015;29;19934;-48
2021/10/17 00:36:35;;;;;;;;;;;;;;;9.13;83.98;102013.31;4895147;29;20308;-49
2021/10/17 00:39:02;;;;;;;;;;;;;;;9.06;84.20;102009.25;4878608;29;20516;-44
2021/10/17 00:41:31;;;;;;;;;;;;;;;9.05;83.68;102012.78;4897714;29;19931;-45
2021/10/17 00:43:59;;;;;;;;;;;;;;;9.15;84.57;102006.25;4880942;29;19934;-47
2021/10/17 00:46:25;;;;;;;;;;;;;;;9.08;83.46;102010.88;4897659;29;19998;-46
2021/10/17 00:48:52;;;;;;;;;;;;;;;9.02;83.73;101999.78;4897725;29;19963;-51
2021/10/17 00:51:19;;;;;;;;;;;;;;;9.07;84.17;101998.69;4897815;29;20007;-47
2021/10/17 00:53:46;;;;;;;;;;;;;;;9.05;84.29;101994.41;4880922;29;19928;-45
2021/10/17 00:56:12;;;;;;;;;;;;;;;8.96;84.41;101985.16;4880982;29;20018;-46
2021/10/17 00:58:39;;;;;;;;;;;;;;;8.91;85.57;101985.31;4880825;29;20093;-56
2021/10/17 01:01:05;;;;;;;;;;;;;;;8.98;85.04;101992.94;4897628;29;19934;-55
2021/10/17 01:03:32;;;;;;;;;;;;;;;8.96;85.05;101993.00;4897292;29;19931;-57
2021/10/17 01:05:59;;;;;;;;;;;;;;;8.95;84.87;101994.75;4880742;29;20291;-54
2021/10/17 01:08:26;;;;;;;;;;;;;;;8.95;85.38;101992.13;4881218;29;20295;-55
2021/10/17 01:10:56;;;;;;;;;;;;;;;8.90;85.29;101986.25;4901381;29;19931;-55
2021/10/17 01:13:24;;;;;;;;;;;;;;;8.88;85.06;101982.81;4884885;29;19995;-55
2021/10/17 01:15:54;;;;;;;;;;;;;;;8.89;85.22;101973.16;4901461;29;19960;-47
2021/10/17 01:18:21;;;;;;;;;;;;;;;8.86;85.58;101979.41;4884805;29;19971;-46
2021/10/17 01:20:48;;;;;;;;;;;;;;;8.86;85.46;101979.41;4884661;29;19928;-44
2021/10/17 01:23:15;;;;;;;;;;;;;;;8.88;85.13;101974.09;4882733;29;19935;-45
2021/10/17 01:25:42;;;;;;;;;;;;;;;8.84;85.43;101981.22;4881771;29;20336;-47
2021/10/17 01:28:09;;;;;;;;;;;;;;;8.89;85.61;101984.53;4900069;29;19928;-55
2021/10/17 01:30:36;;;;;;;;;;;;;;;8.88;85.25;101980.19;4884130;29;19927;-48
2021/10/17 01:33:03;;;;;;;;;;;;;;;8.96;85.64;101975.50;4884098;29;20279;-50
2021/10/17 01:35:29;;;;;;;;;;;;;;;8.99;84.95;101985.00;4901103;29;20311;-48
2021/10/17 01:37:56;;;;;;;;;;;;;;;8.99;84.86;101978.94;4900833;29;19959;-46
2021/10/17 01:40:23;;;;;;;;;;;;;;;8.94;84.79;101977.34;4900921;29;20482;-46
2021/10/17 01:42:49;;;;;;;;;;;;;;;8.95;85.28;101968.53;4884134;29;20007;-46
2021/10/17 01:45:16;;;;;;;;;;;;;;;8.99;85.45;101965.81;4900721;29;19932;-49
2021/10/17 01:47:50;;;;;;;;;;;;;;;8.99;85.19;101974.53;4883936;29;19979;-47
2021/10/17 01:50:17;;;;;;;;;;;;;;;9.05;85.29;101968.16;4900864;29;20406;-45
2021/10/17 01:52:43;;;;;;;;;;;;;;;9.01;84.49;101967.41;4899376;29;19935;-49
2021/10/17 01:55:10;;;;;;;;;;;;;;;8.99;84.70;101964.03;4881217;29;19931;-45
2021/10/17 01:57:37;;;;;;;;;;;;;;;8.94;85.15;101965.97;4899728;29;19927;-45
2021/10/17 02:00:05;;;;;;;;;;;;;;;8.87;84.68;101970.59;4883823;29;19967;-46
2021/10/17 02:02:31;;;;;;;;;;;;;;;8.91;84.66;101974.81;4900358;29;19959;-44
2021/10/17 02:04:58;;;;;;;;;;;;;;;8.88;84.83;101969.69;4900395;29;19931;-47
2021/10/17 02:07:25;;;;;;;;;;;;;;;8.89;84.95;101967.91;4883950;29;19928;-50
2021/10/17 02:09:52;;;;;;;;;;;;;;;8.87;84.92;101965.34;4900171;29;19928;-45
2021/10/17 02:12:25;;;;;;;;;;;;;;;8.89;84.32;101967.91;4900197;29;19931;-46
2021/10/17 02:14:53;;;;;;;;;;;;;;;8.87;84.92;101964.53;4900234;29;19927;-47
2021/10/17 02:17:20;;;;;;;;;;;;;;;8.85;84.66;101956.72;4883548;29;19932;-50
2021/10/17 02:19:46;;;;;;;;;;;;;;;8.88;85.03;101958.38;4881717;29;20417;-46
2021/10/17 02:22:13;;;;;;;;;;;;;;;8.86;85.05;101957.56;4896489;29;19932;-46
2021/10/17 02:24:40;;;;;;;;;;;;;;;8.85;85.19;101959.34;4898964;29;19928;-45
2021/10/17 02:27:06;;;;;;;;;;;;;;;8.85;86.01;101959.34;4883412;29;19928;-45
2021/10/17 02:29:33;;;;;;;;;;;;;;;8.76;86.10;101959.69;4881782;29;19937;-46
2021/10/17 02:32:00;;;;;;;;;;;;;;;8.72;86.78;101955.50;4897091;29;19928;-47
2021/10/17 02:34:27;;;;;;;;;;;;;;;8.73;87.22;101954.59;4899081;29;19987;-45
2021/10/17 02:36:54;;;;;;;;;;;;;;;8.72;87.24;101953.72;4899798;29;19927;-47
2021/10/17 02:39:21;;;;;;;;;;;;;;;8.74;86.84;101956.25;4897358;29;20369;-49
2021/10/17 02:41:47;;;;;;;;;;;;;;;8.75;86.61;101950.13;4879788;29;20136;-48
2021/10/17 02:44:14;;;;;;;;;;;;;;;8.73;87.33;101954.59;4898484;29;19927;-48
2021/10/17 02:46:41;;;;;;;;;;;;;;;8.71;87.46;101941.53;4896009;29;20383;-53
2021/10/17 02:49:08;;;;;;;;;;;;;;;8.54;88.09;101936.94;4897866;29;19928;-51
2021/10/17 02:51:35;;;;;;;;;;;;;;;8.55;88.44;101935.16;4882712;29;19983;-46
2021/10/17 02:54:01;;;;;;;;;;;;;;;8.57;87.69;101939.44;4899232;29;20491;-46
2021/10/17 02:56:28;;;;;;;;;;;;;;;8.58;87.56;101935.91;4881768;29;19932;-49
2021/10/17 02:58:55;;;;;;;;;;;;;;;8.65;87.76;101935.69;4879843;29;20403;-47
2021/10/17 03:01:22;;;;;;;;;;;;;;;8.68;87.85;101946.03;4880109;29;19928;-47
2021/10/17 03:03:49;;;;;;;;;;;;;;;8.70;87.70;101938.94;4899383;29;20312;-52
2021/10/17 03:06:16;;;;;;;;;;;;;;;8.76;87.01;101939.56;4899370;29;20363;-51
2021/10/17 03:08:42;;;;;;;;;;;;;;;8.79;86.49;101947.31;4899337;29;20376;-47
2021/10/17 03:11:09;;;;;;;;;;;;;;;8.79;85.56;101946.44;4898994;29;19978;-49
2021/10/17 03:13:36;;;;;;;;;;;;;;;8.75;84.43;101945.75;4895247;29;19927;-47
2021/10/17 03:16:02;;;;;;;;;;;;;;;8.68;86.02;101946.03;4864794;29;20304;-48
2021/10/17 03:18:29;;;;;;;;;;;;;;;8.65;86.30;101946.16;4899161;29;19956;-57
2021/10/17 03:20:56;;;;;;;;;;;;;;;8.69;87.34;101950.38;4899280;29;19927;-53
2021/10/17 03:23:22;;;;;;;;;;;;;;;8.74;86.79;101948.41;4898893;29;19934;-54
2021/10/17 03:25:49;;;;;;;;;;;;;;;8.74;87.23;101948.41;4882189;29;20407;-55
2021/10/17 03:28:15;;;;;;;;;;;;;;;8.78;87.38;101948.22;4882305;29;19928;-56
2021/10/17 03:30:43;;;;;;;;;;;;;;;8.81;86.70;101949.88;4896674;29;19935;-56
2021/10/17 03:33:09;;;;;;;;;;;;;;;8.77;86.75;101950.91;4879693;29;20001;-55
2021/10/17 03:35:36;;;;;;;;;;;;;;;8.66;86.88;101943.47;4898615;29;20040;-56
2021/10/17 03:38:03;;;;;;;;;;;;;;;8.69;86.74;101945.97;4898716;29;19928;-56
2021/10/17 03:40:29;;;;;;;;;;;;;;;8.54;87.91;101951.81;4898969;29;19927;-56
2021/10/17 03:42:56;;;;;;;;;;;;;;;8.58;87.62;101937.69;4897174;29;19932;-55
2021/10/17 03:45:23;;;;;;;;;;;;;;;8.57;87.30;101938.59;4894912;29;20458;-56
2021/10/17 03:47:49;;;;;;;;;;;;;;;8.56;87.76;101942.13;4897313;29;19935;-56
2021/10/17 03:50:16;;;;;;;;;;;;;;;8.52;87.89;101951.03;4898561;29;19934;-56
2021/10/17 03:52:43;;;;;;;;;;;;;;;8.55;87.52;101938.66;4898504;29;19943;-55
2021/10/17 03:55:10;;;;;;;;;;;;;;;8.53;87.56;101934.38;4880895;29;19934;-55
2021/10/17 03:57:36;;;;;;;;;;;;;;;8.46;88.05;101934.59;4879071;29;20402;-56
2021/10/17 04:00:04;;;;;;;;;;;;;;;8.37;88.33;101932.34;4896505;29;20343;-54
2021/10/17 04:02:30;;;;;;;;;;;;;;;8.35;88.37;101941.16;4896212;29;19967;-57
2021/10/17 04:04:57;;;;;;;;;;;;;;;8.26;89.40;101935.34;4878079;29;20307;-56
2021/10/17 04:07:24;;;;;;;;;;;;;;;8.27;89.13;101937.03;4898257;29;19927;-57
2021/10/17 04:09:50;;;;;;;;;;;;;;;8.35;89.13;101943.78;4865945;29;20054;-56
2021/10/17 04:12:17;;;;;;;;;;;;;;;8.41;88.49;101947.03;4897821;29;19931;-51
2021/10/17 04:14:43;;;;;;;;;;;;;;;8.40;88.46;101944.47;4898120;29;19927;-49
2021/10/17 04:17:10;;;;;;;;;;;;;;;8.34;88.82;101939.44;4897877;29;20349;-49
2021/10/17 04:19:37;;;;;;;;;;;;;;;8.35;88.48;101941.16;4897935;29;19998;-49
2021/10/17 04:22:03;;;;;;;;;;;;;;;8.28;89.10;101937.91;4898282;29;19959;-51
2021/10/17 04:24:30;;;;;;;;;;;;;;;8.34;88.58;101932.44;4897893;29;20353;-51
2021/10/17 04:26:57;;;;;;;;;;;;;;;8.36;88.48;101935.84;4897972;29;19934;-49
2021/10/17 04:29:23;;;;;;;;;;;;;;;8.37;88.56;101934.94;4897476;29;19931;-48
2021/10/17 04:31:50;;;;;;;;;;;;;;;8.40;88.14;101936.59;4897534;29;19932;-47
2021/10/17 04:34:16;;;;;;;;;;;;;;;8.41;87.82;101927.81;4894905;29;19938;-46
2021/10/17 04:36:43;;;;;;;;;;;;;;;8.50;87.43;101929.25;4895687;29;20387;-50
2021/10/17 04:39:10;;;;;;;;;;;;;;;8.48;87.36;101926.72;4897719;29;19928;-49
2021/10/17 04:41:38;;;;;;;;;;;;;;;8.48;87.59;101933.69;4863797;29;20030;-48
2021/10/17 04:44:04;;;;;;;;;;;;;;;8.48;87.75;101928.44;4894333;29;19927;-46
2021/10/17 04:46:31;;;;;;;;;;;;;;;8.51;87.88;101934.44;4896187;29;20284;-47
2021/10/17 04:48:57;;;;;;;;;;;;;;;8.48;88.33;101937.19;4897660;29;19927;-49
2021/10/17 04:51:24;;;;;;;;;;;;;;;8.47;87.67;101935.47;4897344;29;20344;-56
2021/10/17 04:53:51;;;;;;;;;;;;;;;8.39;88.07;101933.09;4878544;29;19991;-56
2021/10/17 04:56:17;;;;;;;;;;;;;;;8.33;88.19;101932.50;4896125;29;20284;-50
2021/10/17 04:58:44;;;;;;;;;;;;;;;8.39;88.25;101938.34;4897399;29;19931;-50
2021/10/17 05:01:10;;;;;;;;;;;;;;;8.35;88.53;101928.06;4881058;29;19967;-47
2021/10/17 05:03:37;;;;;;;;;;;;;;;8.40;88.36;101931.38;4880786;29;19972;-56
2021/10/17 05:06:04;;;;;;;;;;;;;;;8.46;88.38;101934.59;4880842;29;19983;-56
2021/10/17 05:08:31;;;;;;;;;;;;;;;8.52;87.26;101932.66;4880948;29;19935;-56
2021/10/17 05:10:57;;;;;;;;;;;;;;;8.51;87.81;101941.44;4897489;29;20411;-56
2021/10/17 05:13:24;;;;;;;;;;;;;;;8.52;87.48;101925.66;4865525;29;19980;-57
2021/10/17 05:15:51;;;;;;;;;;;;;;;8.47;87.74;101932.84;4894223;29;19991;-56
2021/10/17 05:18:17;;;;;;;;;;;;;;;8.45;88.14;101934.66;4894738;29;20518;-56
2021/10/17 05:20:44;;;;;;;;;;;;;;;8.39;87.97;101935.72;4897487;29;19934;-57
2021/10/17 05:23:13;;;;;;;;;;;;;;;8.45;88.10;101939.91;4897287;29;20391;-56
2021/10/17 05:25:40;;;;;;;;;;;;;;;8.47;87.74;101927.63;4897258;29;19939;-57
2021/10/17 05:28:07;;;;;;;;;;;;;;;8.37;88.03;101934.94;4894117;29;19936;-55
2021/10/17 05:30:34;;;;;;;;;;;;;;;8.46;87.80;101931.97;4861718;29;19935;-57
2021/10/17 05:33:02;;;;;;;;;;;;;;;8.42;87.88;101934.75;4897581;29;19934;-57
2021/10/17 05:35:29;;;;;;;;;;;;;;;8.26;87.86;101942.34;4897515;29;19987;-47
2021/10/17 05:37:56;;;;;;;;;;;;;;;8.19;88.12;101944.34;4879097;29;19935;-48
2021/10/17 05:40:22;;;;;;;;;;;;;;;8.17;88.40;101940.09;4862559;29;20063;-55
2021/10/17 05:42:49;;;;;;;;;;;;;;;8.10;88.44;101944.72;4896550;29;19927;-46
2021/10/17 05:45:16;;;;;;;;;;;;;;;8.02;89.05;101944.16;4880467;29;19931;-45
2021/10/17 05:47:42;;;;;;;;;;;;;;;8.04;89.04;101942.31;4897423;29;19928;-45
2021/10/17 05:50:09;;;;;;;;;;;;;;;8.00;89.42;101945.94;4879334;29;19927;-44
2021/10/17 05:52:35;;;;;;;;;;;;;;;8.04;88.99;101942.31;4893892;29;19943;-45
2021/10/17 05:55:02;;;;;;;;;;;;;;;8.00;88.94;101948.56;4895868;29;19935;-45
2021/10/17 05:57:29;;;;;;;;;;;;;;;8.00;88.91;101954.66;4900480;29;20398;-49
2021/10/17 05:59:55;;;;;;;;;;;;;;;8.00;89.53;101952.03;4899883;29;20428;-49
2021/10/17 06:02:22;;;;;;;;;;;;;;;8.08;88.85;101949.13;4899488;29;19982;-46
2021/10/17 06:04:49;;;;;;;;;;;;;;;8.13;88.45;101949.84;4897648;29;19959;-49
2021/10/17 06:07:16;;;;;;;;;;;;;;;8.08;88.55;101957.00;4882728;29;20936;-48
2021/10/17 06:09:42;;;;;;;;;;;;;;;8.05;89.06;101959.75;4900439;29;19927;-56
2021/10/17 06:12:09;;;;;;;;;;;;;;;8.05;88.98;101965.81;4900333;29;19932;-56
2021/10/17 06:14:36;;;;;;;;;;;;;;;8.02;88.80;101967.72;4900245;29;19931;-56
2021/10/17 06:17:02;;;;;;;;;;;;;;;7.93;89.97;101974.13;4899168;29;19979;-56
2021/10/17 06:19:29;;;;;;;;;;;;;;;7.89;90.70;101976.00;4880813;29;19931;-56
2021/10/17 06:21:57;;;;;;;;;;;;;;;8.00;89.59;101975.59;4899622;29;20444;-56
2021/10/17 06:24:23;;;;;;;;;;;;;;;7.97;90.63;101974.88;4899937;29;19935;-56
2021/10/17 06:26:50;;;;;;;;;;;;;;;8.00;89.98;101980.00;4900042;29;20398;-55
2021/10/17 06:29:17;;;;;;;;;;;;;;;7.95;90.99;101977.56;4899053;29;19927;-56
2021/10/17 06:31:43;;;;;;;;;;;;;;;7.99;90.47;101978.28;4896195;29;19927;-56
2021/10/17 06:34:10;;;;;;;;;;;;;;;8.02;89.79;101986.06;4881351;29;20360;-55
2021/10/17 06:36:38;;;;;;;;;;;;;;;7.99;89.91;101979.16;4899787;29;20402;-56
2021/10/17 06:39:05;;;;;;;;;;;;;;;7.95;90.55;101988.88;4867382;29;20395;-49
2021/10/17 06:41:32;;;;;;;;;;;;;;;8.02;90.37;101988.69;4899823;29;19927;-50
2021/10/17 06:43:59;;;;;;;;;;;;;;;8.01;90.69;101992.22;4883086;29;19931;-48
2021/10/17 06:46:25;;;;;;;;;;;;;;;8.02;90.48;101986.91;4867550;29;19931;-49
2021/10/17 06:48:52;;;;;;;;;;;;;;;8.03;90.31;101993.88;4883125;29;20422;-51
2021/10/17 06:51:19;;;;;;;;;;;;;;;7.98;90.80;101993.16;4899747;29;19958;-47
2021/10/17 06:53:45;;;;;;;;;;;;;;;8.00;90.88;101993.09;4899246;29;19931;-51
2021/10/17 06:56:12;;;;;;;;;;;;;;;8.06;90.80;101995.53;4896092;29;20480;-48
2021/10/17 06:58:38;;;;;;;;;;;;;;;8.08;91.02;101991.91;4878774;29;20312;-51
2021/10/17 07:01:07;;;;;;;;;;;;;;;8.13;91.26;101989.13;4899087;29;19935;-49
2021/10/17 07:03:37;;;;;;;;;;;;;;;8.10;90.74;101992.72;4899293;29;19975;-48
2021/10/17 07:06:05;;;;;;;;;;;;;;;8.11;90.07;101980.47;4882542;29;19927;-47
2021/10/17 07:08:32;;;;;;;;;;;;;;;8.14;90.34;101985.63;4882553;29;20362;-56
2021/10/17 07:10:59;;;;;;;;;;;;;;;8.19;88.96;101980.19;4899366;29;19928;-56
2021/10/17 07:13:26;;;;;;;;;;;;;;;8.33;87.56;101975.31;4882458;29;19951;-56
2021/10/17 07:15:53;;;;;;;;;;;;;;;8.44;87.21;101977.53;4898966;29;19975;-57
2021/10/17 07:18:19;;;;;;;;;;;;;;;8.39;88.04;101971.59;4882344;29;20399;-57
2021/10/17 07:20:46;;;;;;;;;;;;;;;8.44;86.78;101960.00;4898804;29;20022;-57
2021/10/17 07:23:13;;;;;;;;;;;;;;;8.45;86.82;101966.13;4866695;29;20392;-45
2021/10/17 07:25:40;;;;;;;;;;;;;;;8.43;86.94;101975.81;4882035;29;20395;-57
2021/10/17 07:28:06;;;;;;;;;;;;;;;8.41;88.54;101993.34;4898515;29;20284;-57
2021/10/17 07:30:33;;;;;;;;;;;;;;;8.34;87.84;102003.19;4895943;29;19927;-55
2021/10/17 07:33:01;;;;;;;;;;;;;;;8.44;87.93;101995.88;4879590;29;19987;-56
2021/10/17 07:35:28;;;;;;;;;;;;;;;8.51;86.98;101996.50;4881182;29;20410;-55
2021/10/17 07:37:55;;;;;;;;;;;;;;;8.54;87.44;102002.50;4898021;29;19939;-56
2021/10/17 07:40:22;;;;;;;;;;;;;;;8.62;86.80;102010.91;4878960;29;20375;-58
2021/10/17 07:42:49;;;;;;;;;;;;;;;8.73;87.02;102025.41;4896414;29;20387;-56
2021/10/17 07:45:16;;;;;;;;;;;;;;;8.79;86.58;102022.53;4898672;29;19935;-56
2021/10/17 07:47:42;;;;;;;;;;;;;;;8.87;86.11;102016.97;4881851;29;20433;-50
2021/10/17 07:50:09;;;;;;;;;;;;;;;9.02;85.40;102015.53;4898391;29;19928;-56
2021/10/17 07:52:36;;;;;;;;;;;;;;;9.40;83.88;102013.94;4895533;29;19927;-57
2021/10/17 07:55:04;;;;;;;;;;;;;;;9.33;84.05;102019.53;4896668;29;19935;-56
2021/10/17 07:57:30;;;;;;;;;;;;;;;9.45;83.78;102017.25;4881961;29;20375;-56
2021/10/17 07:59:57;;;;;;;;;;;;;;;9.57;82.70;102021.13;4895193;29;19936;-56
2021/10/17 08:02:23;;;;;;;;;;;;;;;9.59;82.96;102016.66;4895523;29;20005;-56
2021/10/17 08:04:50;;;;;;;;;;;;;;;9.61;81.91;102014.84;4881269;29;19935;-56
2021/10/17 08:07:17;;;;;;;;;;;;;;;9.59;80.64;102016.66;4881328;29;19962;-56
2021/10/17 08:09:44;;;;;;;;;;;;;;;9.63;80.82;102027.91;4898121;29;19931;-56
2021/10/17 08:12:10;;;;;;;;;;;;;;;9.73;80.89;102018.69;4879750;29;19935;-57
2021/10/17 08:14:37;;;;;;;;;;;;;;;9.83;81.05;102024.44;4877743;29;19977;-55
2021/10/17 08:17:04;;;;;;;;;;;;;;;9.90;79.95;102027.66;4897234;29;19927;-55
2021/10/17 08:19:30;;;;;;;;;;;;;;;9.98;79.69;102029.00;4897434;29;19927;-56
2021/10/17 08:21:57;;;;;;;;;;;;;;;10.06;78.83;102025.19;4897820;29;19931;-54
2021/10/17 08:24:24;;;;;;;;;;;;;;;10.15;78.40;102035.28;4897854;29;19960;-55
2021/10/17 08:26:51;;;;;;;;;;;;;;;10.25;76.46;102033.09;4897789;29;20292;-55
2021/10/17 08:29:17;;;;;;;;;;;;;;;10.19;75.66;102028.97;4881283;29;19927;-55
2021/10/17 08:31:44;;;;;;;;;;;;;;;10.26;77.77;102017.25;4895242;29;19928;-57
2021/10/17 08:34:11;;;;;;;;;;;;;;;10.38;77.11;102009.78;4894783;29;19927;-57
2021/10/17 08:36:37;;;;;;;;;;;;;;;10.41;77.69;102015.75;4881512;29;19927;-57
2021/10/17 08:39:24;;;;;;;;;;;;;;;10.48;76.30;102006.66;4897748;29;19928;-57
2021/10/17 08:41:51;;;;;;;;;;;;;;;10.55;76.46;102007.25;4881013;29;19927;-57
2021/10/17 08:44:17;;;;;;;;;;;;;;;10.61;74.36;102016.63;4897602;29;19934;-56
2021/10/17 08:46:44;;;;;;;;;;;;;;;10.70;75.58;102005.63;4897162;29;19932;-56
2021/10/17 08:49:11;;;;;;;;;;;;;;;10.78;74.48;102014.06;4894804;29;19952;-57
2021/10/17 08:51:38;;;;;;;;;;;;;;;10.82;73.70;102015.59;4864698;29;19927;-57
2021/10/17 08:54:05;;;;;;;;;;;;;;;10.85;73.79;102022.47;4897683;29;19928;-56
2021/10/17 08:56:32;;;;;;;;;;;;;;;10.94;73.17;102008.88;4865648;29;19931;-56
2021/10/17 08:58:59;;;;;;;;;;;;;;;10.99;74.07;102006.88;4897388;29;20303;-58
2021/10/17 09:01:31;;;;;;;;;;;;;;;11.06;74.07;102003.97;4896727;29;19927;-57
2021/10/17 09:03:58;;;;;;;;;;;;;;;11.15;75.09;102003.50;4894777;29;19927;-47
2021/10/17 09:06:30;;;;;;;;;;;;;;;11.17;73.35;102001.66;4896190;29;19928;-47
2021/10/17 09:09:22;;;;;;;;;;;;;;;11.30;71.91;102010.66;4897634;29;19927;-47
2021/10/17 09:11:50;;;;;;;;;;;;;;;11.27;73.38;102010.78;4878836;29;20303;-52
2021/10/17 09:14:22;;;;;;;;;;;;;;;11.36;72.97;102006.00;4895764;29;19931;-53
2021/10/17 09:16:50;;;;;;;;;;;;;;;11.39;71.97;102006.69;4877416;29;20430;-49
2021/10/17 09:19:23;;;;;;;;;;;;;;;11.35;71.33;102001.69;4879749;29;19954;-49
2021/10/17 09:22:00;;;;;;;;;;;;;;;11.40;71.70;102008.41;4896950;29;20410;-50
2021/10/17 09:24:33;;;;;;;;;;;;;;;11.47;72.41;102006.31;4897131;29;19976;-48
2021/10/17 09:27:06;;;;;;;;;;;;;;;11.62;69.82;102010.81;4897198;29;19927;-48
2021/10/17 09:29:32;;;;;;;;;;;;;;;11.70;70.76;102009.56;4881358;29;19927;-48
2021/10/17 09:31:59;;;;;;;;;;;;;;;11.72;70.87;102005.91;4884351;29;19979;-44
2021/10/17 09:34:26;;;;;;;;;;;;;;;11.79;70.55;102003.81;4897962;29;20011;-45
2021/10/17 09:37:05;;;;;;;;;;;;;;;11.92;70.48;102012.78;4899022;29;19979;-52
2021/10/17 09:39:37;;;;;;;;;;;;;;;12.04;70.58;102010.47;4900939;29;20363;-47
2021/10/17 09:42:04;;;;;;;;;;;;;;;12.21;70.09;102007.78;4900624;29;19934;-50
2021/10/17 09:44:41;;;;;;;;;;;;;;;12.22;68.96;102009.50;4869099;29;20291;-45
2021/10/17 09:47:08;;;;;;;;;;;;;;;12.36;67.83;102015.81;4884301;29;19938;-52
2021/10/17 09:49:34;;;;;;;;;;;;;;;12.38;68.04;102019.22;4900037;29;19988;-51
2021/10/17 09:52:16;;;;;;;;;;;;;;;12.36;67.30;102015.81;4897762;29;20415;-50
2021/10/17 09:54:44;;;;;;;;;;;;;;;12.44;67.69;102006.53;4882627;29;20253;-48
2021/10/17 09:57:10;;;;;;;;;;;;;;;12.54;67.74;102014.81;4900772;29;19927;-48
2021/10/17 09:59:37;;;;;;;;;;;;;;;12.62;66.59;102007.31;4900709;29;19936;-50
2021/10/17 10:02:04;;;;;;;;;;;;;;;12.70;66.73;102011.34;4867598;29;19977;-57
2021/10/17 10:04:31;;;;;;;;;;;;;;;12.71;65.31;102016.53;4880821;29;20522;-56
2021/10/17 10:06:57;;;;;;;;;;;;;;;12.81;65.37;102016.84;4899029;29;19932;-57
2021/10/17 10:09:24;;;;;;;;;;;;;;;12.91;65.13;102020.69;4883576;29;19927;-57
2021/10/17 10:11:50;;;;;;;;;;;;;;;13.05;65.34;102013.75;4899988;29;19927;-57
2021/10/17 10:14:17;;;;;;;;;;;;;;;13.09;64.13;102012.66;4896851;29;19935;-55
2021/10/17 10:16:44;;;;;;;;;;;;;;;12.98;62.82;102015.94;4880825;29;19975;-56
2021/10/17 10:19:13;;;;;;;;;;;;;;;13.02;63.64;102014.81;4866768;29;19927;-56
2021/10/17 10:21:40;;;;;;;;;;;;;;;13.14;63.18;102013.25;4881618;29;20406;-56
2021/10/17 10:24:08;;;;;;;;;;;;;;;13.20;64.69;102007.63;4899117;29;19959;-56
2021/10/17 10:26:35;;;;;;;;;;;;;;;13.30;64.71;102008.75;4883250;29;19959;-56
2021/10/17 10:29:02;;;;;;;;;;;;;;;13.42;64.31;102009.88;4883036;29;19931;-57
2021/10/17 10:31:40;;;;;;;;;;;;;;;13.46;64.04;102011.41;4899525;29;20383;-56
2021/10/17 10:34:07;;;;;;;;;;;;;;;13.62;63.96;102008.72;4900068;29;19939;-56
2021/10/17 10:36:44;;;;;;;;;;;;;;;13.66;62.81;102012.00;4883636;29;19928;-56
2021/10/17 10:39:16;;;;;;;;;;;;;;;13.73;63.79;102009.84;4883182;29;19931;-57
2021/10/17 10:41:47;;;;;;;;;;;;;;;13.75;62.96;102005.34;4898497;29;19975;-56
2021/10/17 10:44:14;;;;;;;;;;;;;;;13.86;62.59;102003.75;4897800;29;19934;-56
2021/10/17 10:46:46;;;;;;;;;;;;;;;13.90;60.92;102000.91;4880370;29;20014;-56
2021/10/17 10:49:33;;;;;;;;;;;;;;;14.00;61.59;102013.47;4882490;29;20352;-49
2021/10/17 10:52:00;;;;;;;;;;;;;;;14.28;61.71;102010.91;4899338;29;19927;-50
2021/10/17 10:54:26;;;;;;;;;;;;;;;14.23;59.10;102002.41;4899670;29;19975;-54
2021/10/17 10:56:55;;;;;;;;;;;;;;;14.25;59.91;102004.03;4899559;29;19928;-48
2021/10/17 10:59:24;;;;;;;;;;;;;;;14.23;59.35;101997.97;4899614;29;19932;-49
2021/10/17 11:02:00;;;;;;;;;;;;;;;14.61;59.75;102002.63;4882560;29;19974;-48
2021/10/17 11:04:41;;;;;;;;;;;;;;;14.81;58.17;101997.91;4899383;29;19928;-56
2021/10/17 11:07:20;;;;;;;;;;;;;;;14.97;59.49;101993.31;4899209;29;19987;-56
2021/10/17 11:09:47;;;;;;;;;;;;;;;15.14;58.60;101984.22;4899234;29;19946;-56
2021/10/17 11:12:46;;;;;;;;;;;;;;;15.19;56.60;101989.25;4899306;29;19951;-58
2021/10/17 11:15:17;;;;;;;;;;;;;;;15.30;57.83;101988.53;4877798;29;19927;-55
2021/10/17 11:17:51;;;;;;;;;;;;;;;15.64;57.38;101984.41;4899383;29;20283;-50
2021/10/17 11:20:19;;;;;;;;;;;;;;;15.67;56.07;101978.91;4880690;29;19928;-57
2021/10/17 11:22:46;;;;;;;;;;;;;;;15.47;55.88;101979.41;4864143;29;20054;-56
2021/10/17 11:25:14;;;;;;;;;;;;;;;15.87;56.62;101976.72;4898869;29;19931;-55
2021/10/17 11:27:40;;;;;;;;;;;;;;;15.92;57.11;101973.72;4898567;29;20391;-56
2021/10/17 11:30:27;;;;;;;;;;;;;;;16.11;56.37;101974.13;4898575;29;19935;-55
2021/10/17 11:32:54;;;;;;;;;;;;;;;16.09;55.52;101983.13;4891737;29;19950;-56
2021/10/17 11:35:25;;;;;;;;;;;;;;;16.38;57.31;101987.22;4881777;29;19932;-44
2021/10/17 11:37:54;;;;;;;;;;;;;;;16.71;53.92;101976.94;4882334;29;19972;-47
2021/10/17 11:40:21;;;;;;;;;;;;;;;17.02;53.97;101980.84;4898436;29;19927;-56
2021/10/17 11:42:52;;;;;;;;;;;;;;;17.44;51.27;101976.88;4898288;29;19934;-57
2021/10/17 11:45:28;;;;;;;;;;;;;;;17.50;49.33;101979.06;4898144;29;19939;-57
2021/10/17 11:47:57;;;;;;;;;;;;;;;17.84;51.04;101989.75;4897579;29;20418;-48
2021/10/17 11:50:30;;;;;;;;;;;;;;;17.71;48.18;101977.41;4895721;29;19927;-49
2021/10/17 11:53:06;;;;;;;;;;;;;;;18.30;47.39;101977.31;4895751;29;19927;-56
2021/10/17 11:55:35;;;;;;;;;;;;;;;18.42;48.07;101966.53;4881860;29;19928;-50
2021/10/17 11:58:03;;;;;;;;;;;;;;;18.50;47.46;101967.69;4866103;29;19934;-57
2021/10/17 12:00:30;;;;;;;;;;;;;;;18.39;45.99;101965.91;4881694;29;19932;-58
2021/10/17 12:02:57;;;;;;;;;;;;;;;18.58;46.31;101958.13;4898343;29;19928;-57
2021/10/17 12:05:25;;;;;;;;;;;;;;;18.15;46.26;101963.44;4881696;29;19968;-56
2021/10/17 12:07:55;;;;;;;;;;;;;;;18.24;46.53;101962.66;4881541;29;19991;-57
2021/10/17 12:10:24;;;;;;;;;;;;;;;18.15;47.21;101956.28;4898283;29;19927;-51
2021/10/17 12:12:50;;;;;;;;;;;;;;;17.82;47.23;101957.97;4898006;29;19959;-51
2021/10/17 12:15:17;;;;;;;;;;;;;;;18.22;45.45;101946.81;4881402;29;20287;-48
2021/10/17 12:17:47;;;;;;;;;;;;;;;18.01;46.05;101951.19;4898219;29;20388;-51
2021/10/17 12:20:16;;;;;;;;;;;;;;;17.71;48.04;101948.16;4881217;29;19932;-51
2021/10/17 12:22:44;;;;;;;;;;;;;;;18.09;45.99;101956.75;4893158;29;19927;-49
2021/10/17 12:25:11;;;;;;;;;;;;;;;18.05;47.50;101955.31;4879318;29;19928;-49
2021/10/17 12:27:39;;;;;;;;;;;;;;;18.06;46.83;101949.03;4860011;29;19999;-50
2021/10/17 12:30:06;;;;;;;;;;;;;;;17.99;47.32;101943.34;4876260;29;20374;-52
2021/10/17 12:32:49;;;;;;;;;;;;;;;17.97;47.55;101945.28;4868991;29;19931;-48
2021/10/17 12:35:32;;;;;;;;;;;;;;;17.96;48.63;101940.09;4893912;29;20372;-50
2021/10/17 12:38:12;;;;;;;;;;;;;;;18.02;47.15;101943.09;4894637;29;19932;-58
2021/10/17 12:40:51;;;;;;;;;;;;;;;17.88;47.41;101945.97;4897890;29;19936;-56
2021/10/17 12:43:27;;;;;;;;;;;;;;;17.64;47.04;101948.75;4881880;29;19939;-56
2021/10/17 12:45:53;;;;;;;;;;;;;;;17.43;47.76;101945.94;4875716;29;19934;-56
2021/10/17 12:48:36;;;;;;;;;;;;;;;17.39;46.90;101947.97;4875577;29;20030;-56